createdAt,value
2018-10-02T00:00:11.531Z,100868.75
2018-10-02T00:25:02.139Z,100862.80
2018-10-02T00:27:49.586Z,100866.45
2018-10-02T00:33:43.259Z,100862.99
2018-10-02T00:36:30.861Z,100863.88
2018-10-02T00:39:19.331Z,100860.19
2018-10-02T00:42:09.984Z,100865.53
2018-10-02T00:44:57.604Z,100863.31
2018-10-02T00:47:54.475Z,100863.90
2018-10-02T00:50:42.890Z,100868.91
2018-10-02T00:56:37.332Z,100859.38
2018-10-02T00:59:27.352Z,100864.22
2018-10-02T01:02:15.944Z,100859.92
2018-10-02T01:20:38.312Z,100852.61
2018-10-02T01:29:57.650Z,100853.47
2018-10-02T01:42:05.761Z,100861.83
2018-10-02T01:44:55.619Z,100868.16
2018-10-02T01:47:47.325Z,100862.19
2018-10-02T01:50:36.222Z,100865.38
2018-10-02T01:53:24.041Z,100862.74
2018-10-02T02:02:27.642Z,100865.96
2018-10-02T02:05:15.207Z,100871.30
2018-10-02T02:08:02.790Z,100872.55
2018-10-02T02:10:50.403Z,100876.57
2018-10-02T02:13:37.562Z,100872.68
2018-10-02T02:16:28.602Z,100870.34
2018-10-02T02:37:55.415Z,100875.13
2018-10-02T02:46:56.745Z,100877.87
2018-10-02T02:49:47.160Z,100871.44
2018-10-02T02:58:47.292Z,100871.43
2018-10-02T03:20:14.317Z,100876.31
2018-10-02T03:23:01.880Z,100875.35
2018-10-02T03:25:49.968Z,100859.98
2018-10-02T03:28:37.379Z,100859.47
2018-10-02T03:31:25.761Z,100857.92
2018-10-02T03:34:13.892Z,100860.44
2018-10-02T03:58:45.091Z,100857.78
2018-10-02T04:01:32.681Z,100861.86
2018-10-02T04:04:21.090Z,100864.44
2018-10-02T04:07:11.928Z,100868.73
2018-10-02T04:13:05.814Z,100864.95
2018-10-02T05:05:03.235Z,100887.96
2018-10-02T05:11:05.551Z,100886.69
2018-10-02T05:13:56.326Z,100888.08
2018-10-02T06:44:29.209Z,100916.08
2018-10-02T06:57:02.861Z,100902.80
2018-10-02T07:06:04.233Z,100906.58
2018-10-02T07:08:54.986Z,100903.64
2018-10-02T07:11:46.295Z,100910.39
2018-10-02T07:27:21.260Z,100908.78
2018-10-02T07:30:10.071Z,100904.03
2018-10-02T07:33:01.025Z,100910.03
2018-10-02T07:35:49.152Z,100902.66
2018-10-02T07:38:36.965Z,100902.02
2018-10-02T07:44:31.059Z,100894.80
2018-10-02T07:47:21.396Z,100896.40
2018-10-02T07:50:09.726Z,100896.47
2018-10-02T07:52:59.503Z,100898.19
2018-10-02T08:14:27.398Z,100886.41
2018-10-02T08:17:28.408Z,100874.61
2018-10-02T08:26:46.900Z,100865.51
2018-10-02T08:29:34.676Z,100860.55
2018-10-02T08:32:24.553Z,100863.97
2018-10-02T08:41:26.822Z,100846.27
2018-10-02T08:47:24.304Z,100845.73
2018-10-02T08:56:26.062Z,100838.53
2018-10-02T09:02:28.010Z,100816.21
2018-10-02T09:05:15.542Z,100813.05
2018-10-02T09:14:25.439Z,100806.59
2018-10-02T09:29:41.113Z,100809.61
2018-10-02T09:55:24.094Z,100786.69
2018-10-02T09:58:16.362Z,100782.14
2018-10-02T10:01:06.021Z,100782.84
2018-10-02T10:06:59.419Z,100784.88
2018-10-02T10:09:46.711Z,100771.28
2018-10-02T10:15:43.517Z,100770.62
2018-10-02T10:18:33.567Z,100771.91
2018-10-02T10:27:45.778Z,100784.62
2018-10-02T10:30:42.942Z,100776.09
2018-10-02T10:36:42.404Z,100760.77
2018-10-02T10:39:29.846Z,100776.13
2018-10-02T10:42:17.610Z,100767.47
2018-10-02T10:54:31.941Z,100749.03
2018-10-02T11:25:24.902Z,100704.39
2018-10-02T11:28:12.747Z,100691.55
2018-10-02T11:31:00.340Z,100680.72
2018-10-02T11:43:25.647Z,100674.06
2018-10-02T11:46:15.943Z,100676.78
2018-10-02T11:55:17.412Z,100659.87
2018-10-02T12:01:15.167Z,100654.19
2018-10-02T12:10:17.485Z,100605.78
2018-10-02T12:28:37.073Z,100593.83
2018-10-02T12:31:28.290Z,100594.13
2018-10-02T12:34:34.682Z,100585.44
2018-10-02T12:37:24.338Z,100573.39
2018-10-02T12:40:11.782Z,100564.98
2018-10-02T12:45:48.578Z,100551.22
2018-10-02T13:07:17.212Z,100527.60
2018-10-02T13:10:04.760Z,100515.31
2018-10-02T13:13:03.297Z,100523.57
2018-10-02T13:15:50.901Z,100494.89
2018-10-02T13:18:38.327Z,100499.19
2018-10-02T13:21:25.890Z,100501.78
2018-10-02T13:27:24.579Z,100484.64
2018-10-02T13:30:15.262Z,100487.88
2018-10-02T13:33:08.188Z,100491.91
2018-10-02T13:36:02.571Z,100485.22
2018-10-02T13:38:51.227Z,100481.53
2018-10-02T13:41:38.449Z,100478.39
2018-10-02T13:44:27.418Z,100480.66
2018-10-02T13:47:15.264Z,100475.64
2018-10-02T13:53:22.185Z,100461.56
2018-10-02T13:56:09.664Z,100457.86
2018-10-02T14:02:04.939Z,100441.33
2018-10-02T14:04:59.649Z,100444.11
2018-10-02T14:10:54.676Z,100427.09
2018-10-02T14:13:44.086Z,100425.19
2018-10-02T14:16:32.485Z,100424.25
2018-10-02T14:19:19.940Z,100423.73
2018-10-02T14:22:08.563Z,100415.97
2018-10-02T14:25:12.315Z,100425.44
2018-10-02T14:34:12.654Z,100424.30
2018-10-02T14:37:00.500Z,100424.90
2018-10-02T14:39:49.170Z,100418.33
2018-10-02T14:45:43.239Z,100419.38
2018-10-02T14:48:30.940Z,100410.63
2018-10-02T14:51:18.133Z,100391.34
2018-10-02T14:54:21.116Z,100387.68
2018-10-02T14:57:08.633Z,100382.88
2018-10-02T15:09:15.288Z,100369.50
2018-10-02T15:12:02.487Z,100355.98
2018-10-02T15:36:35.489Z,100356.80
2018-10-02T15:39:22.581Z,100367.37
2018-10-02T15:42:09.968Z,100366.89
2018-10-02T15:44:57.180Z,100376.34
2018-10-02T15:50:50.381Z,100373.84
2018-10-02T16:09:10.646Z,100345.67
2018-10-02T16:24:30.082Z,100360.55
2018-10-02T16:27:17.259Z,100351.45
2018-10-02T16:54:58.447Z,100374.62
2018-10-02T16:57:45.981Z,100371.19
2018-10-02T17:00:33.530Z,100364.52
2018-10-02T17:03:20.749Z,100358.66
2018-10-02T17:06:07.755Z,100357.34
2018-10-02T17:12:01.132Z,100359.77
2018-10-02T17:14:49.868Z,100364.78
2018-10-02T17:17:37.730Z,100360.90
2018-10-02T17:20:26.631Z,100370.91
2018-10-02T17:23:13.583Z,100376.35
2018-10-02T17:26:00.959Z,100384.38
2018-10-02T17:28:48.825Z,100378.62
2018-10-02T17:31:44.175Z,100368.97
2018-10-02T17:34:32.757Z,100377.69
2018-10-02T17:37:20.349Z,100384.11
2018-10-02T17:40:08.493Z,100388.36
2018-10-02T17:42:56.016Z,100390.30
2018-10-02T17:45:44.458Z,100383.02
2018-10-02T17:48:31.960Z,100382.64
2018-10-02T17:51:19.210Z,100383.58
2018-10-02T17:54:06.653Z,100380.94
2018-10-02T17:56:57.814Z,100391.53
2018-10-02T17:59:47.198Z,100395.69
2018-10-02T18:02:35.553Z,100405.05
2018-10-02T18:05:26.092Z,100394.47
2018-10-02T18:08:13.436Z,100396.14
2018-10-02T18:11:00.757Z,100401.55
2018-10-02T18:13:59.793Z,100401.08
2018-10-02T18:16:48.442Z,100406.94
2018-10-02T18:25:58.027Z,100389.20
2018-10-02T18:28:47.149Z,100391.00
2018-10-02T18:31:36.840Z,100398.38
2018-10-02T18:34:26.753Z,100402.28
2018-10-02T18:37:13.970Z,100384.03
2018-10-02T18:40:01.769Z,100390.14
2018-10-02T18:42:50.871Z,100398.06
2018-10-02T18:45:43.178Z,100390.61
2018-10-02T18:48:35.851Z,100398.47
2018-10-02T18:54:34.321Z,100405.54
2018-10-02T18:57:26.179Z,100402.17
2018-10-02T19:00:16.153Z,100405.67
2018-10-02T19:03:08.851Z,100403.31
2018-10-02T19:05:57.859Z,100403.71
2018-10-02T19:12:07.803Z,100393.98
2018-10-02T19:14:56.686Z,100400.27
2018-10-02T19:17:50.263Z,100397.48
2018-10-02T19:20:37.978Z,100403.03
2018-10-02T19:23:25.971Z,100391.53
2018-10-02T19:26:15.595Z,100412.05
2018-10-02T19:29:04.155Z,100405.38
2018-10-02T19:31:51.588Z,100406.56
2018-10-02T19:34:44.387Z,100405.58
2018-10-02T19:37:31.923Z,100404.67
2018-10-02T19:40:19.867Z,100390.11
2018-10-02T19:43:07.473Z,100399.77
2018-10-02T19:45:54.754Z,100404.53
2018-10-02T19:48:42.212Z,100411.77
2018-10-02T19:51:29.945Z,100412.91
2018-10-02T19:54:17.213Z,100428.18
2018-10-02T19:57:05.405Z,100432.48
2018-10-02T19:59:52.765Z,100435.83
2018-10-02T20:02:40.656Z,100451.20
2018-10-02T20:05:28.343Z,100459.19
2018-10-02T20:08:16.262Z,100449.41
2018-10-02T20:11:04.508Z,100453.20
2018-10-02T20:13:52.717Z,100458.55
2018-10-02T20:16:40.804Z,100451.05
2018-10-02T20:19:28.739Z,100449.54
2018-10-02T20:22:17.081Z,100453.10
2018-10-02T20:25:05.039Z,100456.79
2018-10-02T20:27:52.920Z,100458.45
2018-10-02T20:30:41.154Z,100452.62
2018-10-02T20:33:28.872Z,100452.56
2018-10-02T20:36:19.196Z,100455.23
2018-10-02T20:39:08.636Z,100447.05
2018-10-02T20:41:56.391Z,100447.07
2018-10-02T20:44:43.828Z,100450.23
2018-10-02T20:47:33.080Z,100451.89
2018-10-02T20:50:26.777Z,100450.09
2018-10-02T20:53:17.480Z,100443.33
2018-10-02T20:56:06.215Z,100440.59
2018-10-02T20:58:53.949Z,100438.27
2018-10-02T21:01:44.339Z,100434.28
2018-10-02T21:04:36.894Z,100443.09
2018-10-02T21:07:30.126Z,100439.12
2018-10-02T21:10:18.055Z,100435.50
2018-10-02T21:16:23.014Z,100435.78
2018-10-02T21:19:13.868Z,100429.53
2018-10-02T21:22:04.789Z,100426.03
2018-10-02T21:24:52.777Z,100423.58
2018-10-02T21:27:43.566Z,100424.43
2018-10-02T21:33:34.784Z,100416.62
2018-10-02T21:36:22.567Z,100419.59
2018-10-02T21:39:10.448Z,100418.93
2018-10-02T21:42:01.103Z,100411.34
2018-10-02T21:44:49.556Z,100413.92
2018-10-02T21:47:37.420Z,100413.30
2018-10-02T21:50:25.524Z,100416.70
2018-10-02T21:53:13.050Z,100405.70
2018-10-02T21:56:01.169Z,100398.25
2018-10-02T21:58:49.752Z,100408.00
2018-10-02T22:01:40.519Z,100403.46
2018-10-02T22:04:28.379Z,100407.25
2018-10-02T22:07:16.128Z,100406.81
2018-10-02T22:10:04.254Z,100405.36
2018-10-02T22:12:52.307Z,100406.31
2018-10-02T22:15:40.127Z,100402.45
2018-10-02T22:18:29.147Z,100399.67
2018-10-02T22:21:17.240Z,100396.58
2018-10-02T22:24:08.602Z,100406.55
2018-10-02T22:26:56.753Z,100405.78
2018-10-02T22:32:56.794Z,100408.80
2018-10-02T22:35:44.267Z,100409.33
2018-10-02T22:38:32.841Z,100407.20
2018-10-02T22:41:21.273Z,100414.41
2018-10-02T22:44:08.454Z,100407.73
2018-10-02T22:46:56.925Z,100404.02
2018-10-02T22:49:44.591Z,100406.63
2018-10-02T22:52:32.301Z,100412.36
2018-10-02T22:55:20.423Z,100415.48
2018-10-02T22:58:08.446Z,100416.81
2018-10-02T23:00:56.206Z,100417.59
2018-10-02T23:03:47.493Z,100419.65
2018-10-02T23:06:35.459Z,100430.30
2018-10-02T23:09:23.929Z,100433.63
2018-10-02T23:12:12.012Z,100431.84
2018-10-02T23:15:08.343Z,100445.11
2018-10-02T23:17:56.186Z,100433.70
2018-10-02T23:20:52.021Z,100447.23
2018-10-02T23:23:40.384Z,100439.43
2018-10-02T23:26:31.008Z,100442.58
2018-10-02T23:29:18.963Z,100451.91
2018-10-02T23:32:06.462Z,100451.84
2018-10-02T23:34:54.287Z,100463.30
2018-10-02T23:37:42.389Z,100464.39
2018-10-02T23:40:30.485Z,100460.45
2018-10-02T23:43:18.907Z,100466.12
2018-10-02T23:46:07.417Z,100473.86
2018-10-02T23:48:55.133Z,100468.19
2018-10-02T23:51:42.980Z,100475.39
2018-10-02T23:54:31.532Z,100475.39
2018-10-02T23:57:19.659Z,100472.45
